Time;durP1;ratioP1;P1;durP2;ratioP2;P2;SDS_P1;SDS_P2;PMS_P1;PMS_P2;Temp;Humidity;BMP_temperature;BMP_pressure;BME280_temperature;BME280_humidity;BME280_pressure;Samples;Min_cycle;Max_cycle;Signal;HPM_P1;HPM_P2
2021/09/29 00:01:36;;;;;;;16.63;13.63;;;;;;;;;;4994718;28;20419;-61
2021/09/29 00:04:02;;;;;;;18.13;13.53;;;;;;;;;;4993785;28;20444;-61
2021/09/29 00:06:28;;;;;;;16.63;13.30;;;;;;;;;;5011965;28;20549;-59
2021/09/29 00:08:54;;;;;;;16.13;12.60;;;;;;;;;;5013964;28;20456;-61
2021/09/29 00:11:20;;;;;;;15.50;12.53;;;;;;;;;;4995449;28;20936;-60
2021/09/29 00:13:46;;;;;;;12.93;10.20;;;;;;;;;;4994387;28;20480;-59
2021/09/29 00:16:13;;;;;;;14.37;11.93;;;;;;;;;;4994601;28;20464;-61
2021/09/29 00:18:41;;;;;;;17.47;12.90;;;;;;;;;;4994437;28;20409;-61
2021/09/29 00:21:07;;;;;;;16.67;13.13;;;;;;;;;;5008837;28;20416;-61
2021/09/29 00:23:33;;;;;;;14.57;11.70;;;;;;;;;;5011819;28;20463;-61
2021/09/29 00:25:59;;;;;;;15.90;12.40;;;;;;;;;;5012784;28;20537;-60
2021/09/29 00:28:25;;;;;;;14.63;11.93;;;;;;;;;;5012807;28;20431;-60
2021/09/29 00:31:00;;;;;;;14.43;11.80;;;;;;;;;;5012701;28;20435;-61
2021/09/29 00:33:26;;;;;;;12.93;11.00;;;;;;;;;;5013450;28;20911;-61
2021/09/29 00:35:52;;;;;;;12.90;10.87;;;;;;;;;;5012375;28;20455;-59
2021/09/29 00:38:18;;;;;;;14.63;11.80;;;;;;;;;;5013503;28;20407;-61
2021/09/29 00:40:45;;;;;;;16.43;12.03;;;;;;;;;;5012716;28;20795;-60
2021/09/29 00:43:11;;;;;;;15.53;12.43;;;;;;;;;;5012294;28;20427;-61
2021/09/29 00:45:37;;;;;;;15.73;12.27;;;;;;;;;;5011878;28;20838;-61
2021/09/29 00:48:03;;;;;;;14.17;10.87;;;;;;;;;;5013657;28;20439;-61
2021/09/29 00:50:29;;;;;;;13.90;11.17;;;;;;;;;;5010997;28;20416;-61
2021/09/29 00:52:56;;;;;;;14.97;12.77;;;;;;;;;;5013383;28;20400;-61
2021/09/29 00:55:23;;;;;;;13.23;11.30;;;;;;;;;;5012489;28;20451;-61
2021/09/29 00:57:49;;;;;;;17.60;12.50;;;;;;;;;;5012951;28;20412;-60
2021/09/29 01:00:15;;;;;;;16.67;12.43;;;;;;;;;;5007550;28;20513;-60
2021/09/29 01:02:41;;;;;;;18.97;13.10;;;;;;;;;;5013232;28;20419;-60
2021/09/29 01:05:08;;;;;;;18.40;14.20;;;;;;;;;;5011862;28;21065;-60
2021/09/29 01:07:39;;;;;;;15.73;12.77;;;;;;;;;;5012892;28;20404;-60
2021/09/29 01:10:05;;;;;;;17.70;12.70;;;;;;;;;;5006919;28;20518;-60
2021/09/29 01:12:39;;;;;;;18.07;13.67;;;;;;;;;;5004191;28;20494;-60
2021/09/29 01:15:10;;;;;;;18.80;13.23;;;;;;;;;;5011144;28;20466;-60
2021/09/29 01:17:39;;;;;;;16.17;12.60;;;;;;;;;;5013149;28;20497;-59
2021/09/29 01:20:07;;;;;;;15.97;13.63;;;;;;;;;;5011926;28;20927;-60
2021/09/29 01:22:33;;;;;;;19.53;12.67;;;;;;;;;;4993292;28;20424;-59
2021/09/29 01:25:02;;;;;;;18.53;14.27;;;;;;;;;;4993204;28;20460;-60
2021/09/29 01:27:28;;;;;;;20.40;15.03;;;;;;;;;;5012652;28;20415;-59
2021/09/29 01:29:55;;;;;;;19.60;14.00;;;;;;;;;;5012902;28;20416;-59
2021/09/29 01:32:22;;;;;;;20.60;14.20;;;;;;;;;;5011892;28;20428;-59
2021/09/29 01:34:49;;;;;;;22.33;15.03;;;;;;;;;;5013051;28;20428;-59
2021/09/29 01:37:16;;;;;;;17.90;13.97;;;;;;;;;;5011698;28;20439;-61
2021/09/29 01:39:42;;;;;;;18.70;14.70;;;;;;;;;;5013473;28;20404;-56
2021/09/29 01:42:08;;;;;;;19.90;13.73;;;;;;;;;;5011380;28;20796;-58
2021/09/29 01:44:35;;;;;;;21.63;15.20;;;;;;;;;;5012946;28;20540;-56
2021/09/29 01:47:01;;;;;;;19.60;15.20;;;;;;;;;;5012272;28;20467;-60
2021/09/29 01:49:28;;;;;;;17.93;14.33;;;;;;;;;;5012702;28;20446;-57
2021/09/29 01:51:55;;;;;;;19.03;15.17;;;;;;;;;;4998361;28;20428;-60
2021/09/29 01:54:24;;;;;;;22.67;17.70;;;;;;;;;;4993191;28;20474;-55
2021/09/29 01:56:50;;;;;;;24.33;16.97;;;;;;;;;;5005478;28;20431;-55
2021/09/29 01:59:16;;;;;;;23.87;17.50;;;;;;;;;;5012613;28;20478;-58
2021/09/29 02:01:42;;;;;;;23.53;18.07;;;;;;;;;;5011572;28;20428;-56
2021/09/29 02:04:10;;;;;;;26.97;19.10;;;;;;;;;;5012177;28;20970;-55
2021/09/29 02:06:45;;;;;;;34.53;21.20;;;;;;;;;;5006977;28;20442;-57
2021/09/29 02:09:11;;;;;;;27.03;19.13;;;;;;;;;;4992827;28;20392;-60
2021/09/29 02:11:37;;;;;;;26.30;19.17;;;;;;;;;;5006080;28;20427;-55
2021/09/29 02:14:03;;;;;;;33.73;20.37;;;;;;;;;;5015726;28;20392;-55
2021/09/29 02:16:29;;;;;;;28.30;19.37;;;;;;;;;;5013871;28;20423;-56
2021/09/29 02:18:55;;;;;;;27.57;18.90;;;;;;;;;;5016094;28;20403;-55
2021/09/29 02:21:21;;;;;;;24.57;19.10;;;;;;;;;;5015096;28;20522;-55
2021/09/29 02:23:47;;;;;;;26.77;19.23;;;;;;;;;;5015537;28;20950;-57
2021/09/29 02:26:13;;;;;;;30.03;20.67;;;;;;;;;;5014848;28;20803;-55
2021/09/29 02:28:39;;;;;;;30.10;20.90;;;;;;;;;;5015600;28;20892;-56
2021/09/29 02:31:06;;;;;;;28.10;20.63;;;;;;;;;;5015010;28;20911;-60
2021/09/29 02:33:32;;;;;;;27.87;18.97;;;;;;;;;;5015651;28;20419;-55
2021/09/29 02:35:58;;;;;;;27.60;18.97;;;;;;;;;;5014553;28;20475;-58
2021/09/29 02:38:24;;;;;;;28.70;19.47;;;;;;;;;;5015767;28;20415;-55
2021/09/29 02:40:50;;;;;;;30.97;20.60;;;;;;;;;;5014565;28;20423;-55
2021/09/29 02:43:16;;;;;;;32.70;21.67;;;;;;;;;;5009105;28;20435;-59
2021/09/29 02:45:44;;;;;;;39.67;22.40;;;;;;;;;;5014413;28;20459;-55
2021/09/29 02:48:10;;;;;;;34.07;20.60;;;;;;;;;;5012341;28;20820;-56
2021/09/29 02:50:36;;;;;;;35.10;20.33;;;;;;;;;;5013478;28;20435;-56
2021/09/29 02:53:03;;;;;;;28.10;20.13;;;;;;;;;;5015634;28;20483;-60
2021/09/29 02:55:29;;;;;;;33.33;21.67;;;;;;;;;;5015588;28;20446;-59
2021/09/29 02:57:55;;;;;;;43.47;23.00;;;;;;;;;;5015227;28;20776;-59
2021/09/29 03:00:21;;;;;;;33.73;20.53;;;;;;;;;;5015368;28;20407;-56
2021/09/29 03:02:47;;;;;;;32.37;21.13;;;;;;;;;;5012706;28;20427;-58
2021/09/29 03:05:13;;;;;;;29.47;19.87;;;;;;;;;;5015019;28;20464;-55
2021/09/29 03:07:39;;;;;;;31.13;20.73;;;;;;;;;;4997912;28;20436;-58
2021/09/29 03:10:05;;;;;;;32.43;23.23;;;;;;;;;;4995656;28;20437;-57
2021/09/29 03:12:32;;;;;;;34.17;21.67;;;;;;;;;;5007048;28;20439;-59
2021/09/29 03:14:58;;;;;;;32.60;20.53;;;;;;;;;;5000124;28;20833;-60
2021/09/29 03:17:24;;;;;;;30.47;19.47;;;;;;;;;;5004480;28;20466;-61
2021/09/29 03:19:50;;;;;;;27.20;18.80;;;;;;;;;;5004742;28;20498;-56
2021/09/29 03:22:16;;;;;;;28.47;19.77;;;;;;;;;;5000831;28;20976;-61
2021/09/29 03:24:43;;;;;;;29.57;19.87;;;;;;;;;;4994678;28;20472;-60
2021/09/29 03:27:09;;;;;;;28.57;19.63;;;;;;;;;;5004644;28;20424;-61
2021/09/29 03:29:35;;;;;;;32.40;21.57;;;;;;;;;;5014764;28;20763;-60
2021/09/29 03:32:01;;;;;;;33.83;21.43;;;;;;;;;;5013812;28;20443;-61
2021/09/29 03:34:27;;;;;;;29.20;18.60;;;;;;;;;;5014401;28;20455;-61
2021/09/29 03:36:53;;;;;;;30.27;18.87;;;;;;;;;;5012266;28;20951;-61
2021/09/29 03:39:20;;;;;;;30.20;18.20;;;;;;;;;;5013583;28;20474;-58
2021/09/29 03:41:46;;;;;;;28.80;18.23;;;;;;;;;;5013484;28;20459;-59
2021/09/29 03:44:12;;;;;;;28.13;17.80;;;;;;;;;;5014397;28;20497;-58
2021/09/29 03:46:38;;;;;;;31.17;19.80;;;;;;;;;;5013615;28;20411;-57
2021/09/29 03:49:05;;;;;;;30.50;18.10;;;;;;;;;;5014407;28;20396;-60
2021/09/29 03:51:31;;;;;;;26.70;16.90;;;;;;;;;;5013719;28;20411;-57
2021/09/29 03:53:58;;;;;;;24.50;16.40;;;;;;;;;;5014579;28;20435;-56
2021/09/29 03:56:24;;;;;;;30.93;19.60;;;;;;;;;;5014317;28;20454;-57
2021/09/29 03:58:50;;;;;;;26.53;17.20;;;;;;;;;;5014230;28;20865;-56
2021/09/29 04:01:16;;;;;;;24.87;17.27;;;;;;;;;;5014422;28;20400;-61
2021/09/29 04:03:42;;;;;;;30.83;19.20;;;;;;;;;;5013335;28;20424;-60
2021/09/29 04:06:09;;;;;;;27.40;17.50;;;;;;;;;;4994255;28;20452;-57
2021/09/29 04:08:35;;;;;;;25.03;15.63;;;;;;;;;;4994450;28;20434;-58
2021/09/29 04:11:01;;;;;;;29.27;17.50;;;;;;;;;;4994630;28;20443;-61
2021/09/29 04:13:28;;;;;;;22.87;15.67;;;;;;;;;;5009577;28;20498;-58
2021/09/29 04:15:55;;;;;;;31.53;17.13;;;;;;;;;;5014348;28;20427;-60
2021/09/29 04:18:21;;;;;;;24.63;14.87;;;;;;;;;;5012813;28;20790;-57
2021/09/29 04:20:47;;;;;;;22.50;16.70;;;;;;;;;;5013934;28;20888;-57
2021/09/29 04:23:13;;;;;;;24.33;16.80;;;;;;;;;;5000371;28;20429;-59
2021/09/29 04:25:41;;;;;;;25.80;16.00;;;;;;;;;;4994198;28;20831;-59
2021/09/29 04:28:07;;;;;;;22.27;15.90;;;;;;;;;;4994550;28;20435;-55
2021/09/29 04:30:33;;;;;;;22.67;15.70;;;;;;;;;;4994459;28;20792;-56
2021/09/29 04:33:00;;;;;;;27.87;16.60;;;;;;;;;;5003701;28;20462;-59
2021/09/29 04:35:26;;;;;;;25.27;16.10;;;;;;;;;;5014386;28;20507;-60
2021/09/29 04:37:52;;;;;;;22.93;15.33;;;;;;;;;;5013043;28;20436;-60
2021/09/29 04:40:18;;;;;;;23.17;15.40;;;;;;;;;;5013747;28;20407;-55
2021/09/29 04:42:44;;;;;;;24.87;14.80;;;;;;;;;;5006246;28;20519;-60
2021/09/29 04:45:10;;;;;;;21.00;13.70;;;;;;;;;;5004205;28;20535;-55
2021/09/29 04:47:37;;;;;;;22.80;14.17;;;;;;;;;;5012789;28;20430;-60
2021/09/29 04:50:03;;;;;;;19.30;13.50;;;;;;;;;;5013847;28;20396;-60
2021/09/29 04:52:29;;;;;;;21.43;14.43;;;;;;;;;;5012678;28;20423;-60
2021/09/29 04:54:55;;;;;;;20.23;12.93;;;;;;;;;;5013269;28;20431;-60
2021/09/29 04:57:21;;;;;;;20.90;13.87;;;;;;;;;;5009510;28;20432;-58
2021/09/29 04:59:47;;;;;;;19.40;13.27;;;;;;;;;;4994049;28;20405;-60
2021/09/29 05:02:14;;;;;;;21.80;13.90;;;;;;;;;;4995130;28;20412;-59
2021/09/29 05:04:40;;;;;;;20.10;12.37;;;;;;;;;;5012976;28;20464;-59
2021/09/29 05:07:06;;;;;;;18.43;13.13;;;;;;;;;;5012107;28;20415;-60
2021/09/29 05:09:32;;;;;;;18.60;12.37;;;;;;;;;;5013884;28;20885;-56
2021/09/29 05:11:59;;;;;;;22.77;13.13;;;;;;;;;;5013272;28;20400;-60
2021/09/29 05:14:25;;;;;;;19.93;13.80;;;;;;;;;;5009506;28;20455;-60
2021/09/29 05:16:51;;;;;;;21.43;13.43;;;;;;;;;;5012235;28;20831;-58
2021/09/29 05:19:17;;;;;;;20.50;11.57;;;;;;;;;;5011859;28;20423;-57
2021/09/29 05:21:43;;;;;;;21.63;13.53;;;;;;;;;;5011927;28;20428;-59
2021/09/29 05:24:10;;;;;;;15.60;10.93;;;;;;;;;;5012243;28;20495;-60
2021/09/29 05:26:36;;;;;;;16.83;11.47;;;;;;;;;;5013140;28;20419;-59
2021/09/29 05:29:02;;;;;;;13.60;10.20;;;;;;;;;;5011916;28;20509;-56
2021/09/29 05:31:28;;;;;;;15.50;10.60;;;;;;;;;;5013007;28;20399;-60
2021/09/29 05:33:55;;;;;;;20.57;11.17;;;;;;;;;;5012183;28;20423;-59
2021/09/29 05:36:21;;;;;;;15.47;10.73;;;;;;;;;;5012912;28;20416;-59
2021/09/29 05:38:47;;;;;;;19.50;10.13;;;;;;;;;;5029022;23;20541;-83
2021/09/29 05:41:13;;;;;;;16.03;10.27;;;;;;;;;;5035818;28;20411;-85
2021/09/29 05:43:39;;;;;;;11.17;8.57;;;;;;;;;;5036379;28;20422;-84
2021/09/29 05:46:05;;;;;;;15.67;9.60;;;;;;;;;;5038914;28;20514;-84
2021/09/29 05:48:31;;;;;;;10.93;9.20;;;;;;;;;;5019763;28;20435;-84
2021/09/29 05:50:57;;;;;;;14.00;7.93;;;;;;;;;;5020062;28;20569;-84
2021/09/29 05:53:23;;;;;;;12.10;7.53;;;;;;;;;;5026449;23;20495;-63
2021/09/29 05:55:50;;;;;;;10.83;7.87;;;;;;;;;;5010301;28;20403;-63
2021/09/29 05:58:16;;;;;;;9.07;6.63;;;;;;;;;;5016141;28;20426;-63
2021/09/29 06:00:43;;;;;;;8.57;6.63;;;;;;;;;;5017033;28;20395;-63
2021/09/29 06:03:09;;;;;;;12.13;6.43;;;;;;;;;;5015912;28;20792;-63
2021/09/29 06:05:35;;;;;;;14.03;7.40;;;;;;;;;;5029830;23;20483;-60
2021/09/29 06:08:01;;;;;;;7.93;6.17;;;;;;;;;;5015455;28;20511;-59
2021/09/29 06:10:27;;;;;;;9.73;6.00;;;;;;;;;;5016684;28;20478;-59
2021/09/29 06:12:53;;;;;;;8.80;5.93;;;;;;;;;;5015940;28;20412;-61
2021/09/29 06:15:21;;;;;;;6.97;4.97;;;;;;;;;;5016005;28;20431;-57
2021/09/29 06:17:56;;;;;;;7.27;5.77;;;;;;;;;;5012575;28;20420;-61
2021/09/29 06:20:23;;;;;;;8.53;5.53;;;;;;;;;;4996864;28;20515;-61
2021/09/29 06:22:49;;;;;;;5.43;4.83;;;;;;;;;;4999040;28;20498;-60
2021/09/29 06:25:16;;;;;;;7.40;5.00;;;;;;;;;;5015029;28;20467;-60
2021/09/29 06:27:43;;;;;;;9.80;5.50;;;;;;;;;;5015070;28;20403;-61
2021/09/29 06:30:09;;;;;;;5.63;4.47;;;;;;;;;;5012232;28;20506;-60
2021/09/29 06:32:35;;;;;;;7.27;5.30;;;;;;;;;;4996819;28;20420;-60
2021/09/29 06:35:02;;;;;;;9.50;4.87;;;;;;;;;;5016209;28;20423;-60
2021/09/29 06:37:28;;;;;;;6.17;4.70;;;;;;;;;;5016515;28;20403;-58
2021/09/29 06:39:54;;;;;;;10.33;3.90;;;;;;;;;;5015545;28;20435;-58
2021/09/29 06:42:20;;;;;;;5.10;3.50;;;;;;;;;;5015969;28;20522;-57
2021/09/29 06:44:46;;;;;;;5.57;4.07;;;;;;;;;;5014838;28;20451;-60
2021/09/29 06:47:12;;;;;;;8.30;4.40;;;;;;;;;;5016243;28;20427;-60
2021/09/29 06:49:38;;;;;;;6.17;4.10;;;;;;;;;;5014619;28;20424;-60
2021/09/29 06:52:04;;;;;;;5.33;4.30;;;;;;;;;;5016128;28;20400;-58
2021/09/29 06:54:30;;;;;;;5.50;4.00;;;;;;;;;;5014335;28;20756;-60
2021/09/29 06:56:57;;;;;;;6.50;3.73;;;;;;;;;;5009768;28;20430;-60
2021/09/29 06:59:23;;;;;;;6.30;4.50;;;;;;;;;;5003443;28;20478;-60
2021/09/29 07:01:49;;;;;;;6.37;3.47;;;;;;;;;;5007853;28;21299;-60
2021/09/29 07:04:15;;;;;;;4.87;3.67;;;;;;;;;;5005169;28;20541;-60
2021/09/29 07:06:41;;;;;;;3.57;3.17;;;;;;;;;;5008435;28;20872;-60
2021/09/29 07:09:08;;;;;;;3.70;3.10;;;;;;;;;;5010711;28;20511;-59
2021/09/29 07:11:34;;;;;;;6.10;2.87;;;;;;;;;;5010464;28;20462;-61
2021/09/29 07:14:02;;;;;;;3.97;2.63;;;;;;;;;;5010907;28;20462;-60
2021/09/29 07:16:28;;;;;;;3.00;2.70;;;;;;;;;;5010414;28;20455;-60
2021/09/29 07:18:57;;;;;;;9.93;2.83;;;;;;;;;;5007161;28;20511;-59
2021/09/29 07:21:24;;;;;;;3.03;2.10;;;;;;;;;;5007758;28;20931;-55
2021/09/29 07:23:51;;;;;;;3.77;2.63;;;;;;;;;;5008220;28;20447;-59
2021/09/29 07:26:17;;;;;;;3.87;2.23;;;;;;;;;;5009919;28;20438;-60
2021/09/29 07:28:44;;;;;;;5.10;3.37;;;;;;;;;;5010682;28;20493;-60
2021/09/29 07:31:10;;;;;;;3.30;2.50;;;;;;;;;;5011675;28;20790;-60
2021/09/29 07:33:36;;;;;;;4.70;2.70;;;;;;;;;;5011111;28;20542;-59
2021/09/29 07:36:02;;;;;;;10.80;2.40;;;;;;;;;;5011076;28;20431;-60
2021/09/29 07:38:28;;;;;;;3.00;2.70;;;;;;;;;;5008250;28;20431;-60
2021/09/29 07:40:55;;;;;;;7.10;2.40;;;;;;;;;;5009403;28;20439;-59
2021/09/29 07:43:21;;;;;;;5.00;2.60;;;;;;;;;;5011341;28;20510;-60
2021/09/29 07:45:47;;;;;;;4.97;2.87;;;;;;;;;;5008596;28;20463;-59
2021/09/29 07:48:13;;;;;;;3.50;2.30;;;;;;;;;;5011101;28;20416;-60
2021/09/29 07:50:39;;;;;;;9.10;2.10;;;;;;;;;;5011443;28;20475;-60
2021/09/29 07:53:05;;;;;;;2.43;1.57;;;;;;;;;;5006764;28;20419;-60
2021/09/29 07:55:31;;;;;;;6.13;1.90;;;;;;;;;;5007815;28;20485;-60
2021/09/29 07:57:57;;;;;;;4.37;1.77;;;;;;;;;;5010344;28;20469;-59
2021/09/29 08:00:23;;;;;;;3.50;2.00;;;;;;;;;;5003369;28;20435;-59
2021/09/29 08:02:50;;;;;;;2.70;1.40;;;;;;;;;;5002099;28;21842;-60
2021/09/29 08:05:19;;;;;;;5.10;1.57;;;;;;;;;;5004352;28;20474;-59
2021/09/29 08:07:45;;;;;;;3.60;1.80;;;;;;;;;;5006000;28;20809;-60
2021/09/29 08:10:11;;;;;;;3.10;1.47;;;;;;;;;;5003380;28;20466;-60
2021/09/29 08:12:38;;;;;;;3.43;1.77;;;;;;;;;;5008308;28;20458;-60
2021/09/29 08:15:11;;;;;;;7.53;2.20;;;;;;;;;;5010073;28;20475;-59
2021/09/29 08:17:37;;;;;;;3.10;1.20;;;;;;;;;;5003146;28;20457;-58
2021/09/29 08:20:03;;;;;;;3.20;1.47;;;;;;;;;;5009446;28;20424;-61
2021/09/29 08:22:29;;;;;;;3.73;1.70;;;;;;;;;;5006544;28;20423;-60
2021/09/29 08:25:26;;;;;;;2.53;1.60;;;;;;;;;;5005375;28;20491;-60
2021/09/29 08:33:20;;;;;;;3.87;2.23;;;;;;;;;;5009976;28;20940;-60
2021/09/29 08:36:00;;;;;;;6.57;1.83;;;;;;;;;;5009763;28;20439;-60
2021/09/29 08:45:58;;;;;;;3.90;1.40;;;;;;;;;;5009244;28;20900;-59
2021/09/29 08:48:34;;;;;;;2.70;1.30;;;;;;;;;;5007495;28;20912;-60
2021/09/29 09:15:45;;;;;;;2.30;0.93;;;;;;;;;;5008378;28;20450;-60
2021/09/29 09:18:12;;;;;;;4.17;1.37;;;;;;;;;;5010379;28;20419;-58
2021/09/29 09:20:43;;;;;;;6.47;1.80;;;;;;;;;;5013294;28;20416;-59
2021/09/29 09:23:09;;;;;;;2.60;1.30;;;;;;;;;;5014381;28;20434;-59
2021/09/29 09:25:37;;;;;;;4.00;1.40;;;;;;;;;;5012914;28;20529;-60
2021/09/29 09:28:04;;;;;;;2.10;1.10;;;;;;;;;;5012418;28;20443;-60
2021/09/29 09:30:35;;;;;;;2.10;1.30;;;;;;;;;;5010996;28;20495;-61
2021/09/29 09:33:01;;;;;;;2.90;1.63;;;;;;;;;;5012063;28;20407;-60
2021/09/29 09:35:40;;;;;;;2.83;1.37;;;;;;;;;;5011757;28;20436;-58
2021/09/29 09:38:10;;;;;;;3.60;1.37;;;;;;;;;;5014211;28;20407;-59
2021/09/29 09:40:37;;;;;;;2.30;1.10;;;;;;;;;;5011675;28;20468;-59
2021/09/29 09:43:04;;;;;;;3.53;1.40;;;;;;;;;;5011816;28;20423;-60
2021/09/29 09:45:31;;;;;;;4.50;1.30;;;;;;;;;;5018040;28;20455;-58
2021/09/29 09:47:57;;;;;;;3.57;1.30;;;;;;;;;;5017746;28;20427;-59
2021/09/29 09:50:27;;;;;;;1.97;1.10;;;;;;;;;;5016489;28;20445;-59
2021/09/29 09:52:53;;;;;;;2.00;1.10;;;;;;;;;;5014085;28;20414;-59
2021/09/29 09:55:20;;;;;;;3.40;1.33;;;;;;;;;;5013376;28;20459;-59
2021/09/29 09:57:51;;;;;;;4.47;1.20;;;;;;;;;;5016153;28;20458;-60
2021/09/29 10:00:19;;;;;;;2.87;1.20;;;;;;;;;;5019090;28;20430;-59
2021/09/29 10:02:51;;;;;;;1.93;1.10;;;;;;;;;;5018016;28;20427;-58
2021/09/29 10:05:18;;;;;;;2.13;1.33;;;;;;;;;;5014151;28;20979;-56
2021/09/29 10:07:48;;;;;;;2.30;1.30;;;;;;;;;;5012090;28;20482;-58
2021/09/29 10:10:30;;;;;;;2.70;0.93;;;;;;;;;;5008389;28;20928;-58
2021/09/29 10:26:07;;;;;;;2.23;0.90;;;;;;;;;;5006274;28;20866;-59
2021/09/29 10:27:13;;;;;;;3.07;1.17;;;;;;;;;;5004772;28;20576;-59
2021/09/29 10:29:46;;;;;;;2.20;1.20;;;;;;;;;;5011378;28;20873;-60
2021/09/29 10:32:27;;;;;;;3.07;1.53;;;;;;;;;;5017258;28;20767;-58
2021/09/29 10:37:51;;;;;;;4.47;1.33;;;;;;;;;;5014760;28;20426;-59
2021/09/29 10:43:05;;;;;;;2.20;1.20;;;;;;;;;;4996308;28;20432;-58
2021/09/29 10:51:43;;;;;;;3.70;1.43;;;;;;;;;;5013249;28;20418;-59
2021/09/29 11:05:36;;;;;;;3.10;1.63;;;;;;;;;;5010011;28;21009;-60
2021/09/29 11:30:04;;;;;;;2.70;1.13;;;;;;;;;;5010321;28;20430;-60
2021/09/29 11:32:44;;;;;;;2.67;1.33;;;;;;;;;;5008213;28;20432;-59
2021/09/29 11:35:21;;;;;;;2.30;1.00;;;;;;;;;;5010763;28;20505;-61
2021/09/29 11:48:46;;;;;;;5.20;2.00;;;;;;;;;;5017825;28;20419;-60
2021/09/29 12:08:40;;;;;;;4.17;1.40;;;;;;;;;;5013120;28;20565;-58
2021/09/29 12:11:09;;;;;;;2.20;1.30;;;;;;;;;;5012782;28;20400;-59
2021/09/29 12:14:05;;;;;;;6.47;1.70;;;;;;;;;;5010732;28;20424;-58
2021/09/29 12:16:41;;;;;;;3.20;1.43;;;;;;;;;;5012027;28;20424;-60
2021/09/29 12:19:09;;;;;;;2.80;1.10;;;;;;;;;;5008700;28;20431;-60
2021/09/29 12:21:49;;;;;;;2.30;1.10;;;;;;;;;;5009763;28;20415;-59
2021/09/29 12:24:34;;;;;;;3.40;1.23;;;;;;;;;;5008355;28;20446;-59
2021/09/29 12:27:02;;;;;;;2.03;1.20;;;;;;;;;;5013023;28;20502;-59
2021/09/29 12:29:53;;;;;;;3.30;1.30;;;;;;;;;;5011288;28;20412;-60
2021/09/29 12:35:09;;;;;;;4.63;1.63;;;;;;;;;;5011474;28;20534;-60
2021/09/29 12:37:36;;;;;;;2.43;1.20;;;;;;;;;;5008484;28;20423;-60
2021/09/29 12:40:02;;;;;;;3.20;1.53;;;;;;;;;;5014280;28;20458;-60
2021/09/29 12:42:30;;;;;;;4.47;1.10;;;;;;;;;;5011333;28;20422;-60
2021/09/29 12:44:56;;;;;;;12.20;2.10;;;;;;;;;;5013443;28;20545;-60
2021/09/29 12:47:25;;;;;;;3.20;1.70;;;;;;;;;;5014660;28;20427;-59
2021/09/29 12:49:52;;;;;;;3.13;1.60;;;;;;;;;;5011092;28;20421;-60
2021/09/29 12:52:33;;;;;;;4.63;1.67;;;;;;;;;;5008669;28;20456;-61
2021/09/29 12:55:00;;;;;;;4.50;1.30;;;;;;;;;;5009372;28;20455;-61
2021/09/29 12:57:28;;;;;;;3.43;1.77;;;;;;;;;;5007956;28;20436;-60
2021/09/29 12:59:55;;;;;;;4.30;1.70;;;;;;;;;;5008594;28;20445;-61
2021/09/29 13:02:21;;;;;;;2.23;1.20;;;;;;;;;;5007395;28;20428;-59
2021/09/29 13:04:47;;;;;;;4.93;1.50;;;;;;;;;;5006861;28;20466;-59
2021/09/29 13:07:13;;;;;;;3.70;1.37;;;;;;;;;;5004419;28;20411;-59
2021/09/29 13:09:39;;;;;;;3.90;1.30;;;;;;;;;;5009461;28;21012;-60
2021/09/29 13:12:39;;;;;;;3.87;1.50;;;;;;;;;;5007567;28;20435;-60
2021/09/29 13:15:05;;;;;;;3.17;1.60;;;;;;;;;;5009599;28;20461;-58
2021/09/29 13:17:31;;;;;;;6.73;1.50;;;;;;;;;;5011262;28;20438;-60
2021/09/29 13:20:00;;;;;;;2.77;1.43;;;;;;;;;;5008370;28;20427;-60
2021/09/29 13:22:27;;;;;;;2.90;1.20;;;;;;;;;;5002852;28;20454;-58
2021/09/29 13:38:47;;;;;;;5.33;1.33;;;;;;;;;;5010219;28;20517;-60
2021/09/29 13:41:13;;;;;;;3.20;1.70;;;;;;;;;;5005638;28;20929;-59
2021/09/29 13:43:39;;;;;;;7.27;2.00;;;;;;;;;;5007061;28;20481;-60
2021/09/29 13:46:05;;;;;;;3.07;1.53;;;;;;;;;;5009712;28;20455;-58
2021/09/29 13:48:31;;;;;;;4.53;1.73;;;;;;;;;;5009612;28;20502;-59
2021/09/29 13:50:57;;;;;;;4.33;1.70;;;;;;;;;;5008626;28;20548;-60
2021/09/29 13:53:26;;;;;;;2.20;1.13;;;;;;;;;;5010938;28;20770;-60
2021/09/29 13:55:52;;;;;;;3.20;1.53;;;;;;;;;;5007514;28;20907;-60
2021/09/29 13:58:45;;;;;;;2.87;1.30;;;;;;;;;;5008791;28;20423;-58
2021/09/29 14:15:14;;;;;;;3.03;1.30;;;;;;;;;;4994665;28;20462;-60
2021/09/29 14:31:13;;;;;;;3.77;1.30;;;;;;;;;;5014788;28;20443;-60
2021/09/29 14:33:43;;;;;;;5.73;1.43;;;;;;;;;;5014990;28;20776;-59
2021/09/29 14:36:09;;;;;;;5.07;1.60;;;;;;;;;;5009494;28;20935;-61
2021/09/29 14:38:35;;;;;;;4.40;1.47;;;;;;;;;;5010763;28;20521;-61
2021/09/29 14:41:02;;;;;;;2.70;1.30;;;;;;;;;;5014665;28;20431;-60
2021/09/29 14:43:28;;;;;;;4.00;1.00;;;;;;;;;;5019741;28;20418;-60
2021/09/29 14:45:54;;;;;;;2.57;1.40;;;;;;;;;;5011796;28;20518;-60
2021/09/29 14:48:20;;;;;;;2.20;1.07;;;;;;;;;;5015572;28;20415;-60
2021/09/29 14:50:49;;;;;;;2.33;1.20;;;;;;;;;;5013062;28;20419;-59
2021/09/29 14:53:15;;;;;;;6.20;3.63;;;;;;;;;;5019632;28;20433;-59
2021/09/29 14:55:41;;;;;;;3.03;1.50;;;;;;;;;;5003563;28;20447;-60
2021/09/29 14:58:08;;;;;;;2.23;1.13;;;;;;;;;;5011349;28;20429;-60
2021/09/29 15:00:34;;;;;;;3.33;1.10;;;;;;;;;;5015109;28;20436;-61
2021/09/29 15:03:00;;;;;;;2.40;1.20;;;;;;;;;;5011952;28;20450;-61
2021/09/29 15:05:27;;;;;;;2.00;1.20;;;;;;;;;;5009246;28;20471;-59
2021/09/29 15:07:53;;;;;;;2.13;1.20;;;;;;;;;;5011941;28;20427;-60
2021/09/29 15:10:19;;;;;;;3.20;1.00;;;;;;;;;;5010602;28;20482;-60
2021/09/29 15:12:45;;;;;;;2.47;1.37;;;;;;;;;;5011878;28;20515;-60
2021/09/29 15:28:41;;;;;;;4.83;1.43;;;;;;;;;;5011897;28;20406;-61
2021/09/29 15:31:32;;;;;;;3.10;1.13;;;;;;;;;;5011088;28;20930;-61
2021/09/29 15:50:31;;;;;;;2.20;0.90;;;;;;;;;;5010261;28;20442;-59
2021/09/29 16:03:36;;;;;;;2.47;1.40;;;;;;;;;;5007827;28;20420;-58
2021/09/29 16:29:58;;;;;;;2.17;1.07;;;;;;;;;;5006815;28;20482;-60
2021/09/29 16:32:09;;;;;;;5.80;1.60;;;;;;;;;;5011915;28;20435;-59
2021/09/29 16:34:45;;;;;;;2.20;1.30;;;;;;;;;;5011091;28;20443;-60
2021/09/29 16:37:11;;;;;;;2.97;1.67;;;;;;;;;;5032975;23;20487;-63
2021/09/29 16:39:38;;;;;;;5.63;1.70;;;;;;;;;;5012066;28;20922;-63
2021/09/29 16:42:04;;;;;;;3.63;2.10;;;;;;;;;;5004726;28;20510;-63
2021/09/29 16:44:30;;;;;;;4.00;1.80;;;;;;;;;;5013594;28;20427;-63
2021/09/29 16:46:57;;;;;;;5.53;2.27;;;;;;;;;;4997875;28;20448;-64
2021/09/29 16:49:25;;;;;;;3.50;2.00;;;;;;;;;;4993077;28;20421;-63
2021/09/29 16:52:02;;;;;;;3.20;1.70;;;;;;;;;;4992144;28;20451;-63
2021/09/29 16:54:29;;;;;;;3.80;1.80;;;;;;;;;;4993971;28;20443;-63
2021/09/29 16:56:55;;;;;;;4.13;1.70;;;;;;;;;;5007968;28;20459;-63
2021/09/29 17:01:56;;;;;;;2.73;1.70;;;;;;;;;;5001462;28;20424;-63
2021/09/29 17:04:24;;;;;;;4.43;2.53;;;;;;;;;;4994167;28;20393;-62
2021/09/29 17:06:50;;;;;;;5.03;1.93;;;;;;;;;;4992735;28;20452;-63
2021/09/29 17:09:16;;;;;;;5.07;3.37;;;;;;;;;;4993572;28;20411;-63
2021/09/29 17:11:42;;;;;;;5.53;1.70;;;;;;;;;;4991932;28;20428;-63
2021/09/29 17:14:09;;;;;;;6.03;1.70;;;;;;;;;;4992504;28;20913;-63
2021/09/29 17:16:35;;;;;;;3.30;2.03;;;;;;;;;;4992100;28;20805;-63
2021/09/29 17:19:04;;;;;;;3.27;1.70;;;;;;;;;;4992624;28;20513;-63
2021/09/29 17:21:33;;;;;;;2.67;1.60;;;;;;;;;;4991493;28;20439;-63
2021/09/29 17:23:59;;;;;;;3.07;1.90;;;;;;;;;;4993555;28;20459;-62
2021/09/29 17:26:25;;;;;;;4.77;1.90;;;;;;;;;;4992680;28;20472;-63
2021/09/29 17:28:56;;;;;;;5.27;2.80;;;;;;;;;;4993615;28;20409;-63
2021/09/29 17:31:29;;;;;;;3.87;2.33;;;;;;;;;;4992885;28;20457;-63
2021/09/29 17:34:24;;;;;;;1.90;1.13;;;;;;;;;;4993523;28;20385;-63
2021/09/29 17:52:43;;;;;;;2.23;0.90;;;;;;;;;;4996265;28;20432;-64
2021/09/29 17:55:10;;;;;;;2.80;1.10;;;;;;;;;;4995199;28;20432;-63
2021/09/29 17:57:36;;;;;;;2.13;1.07;;;;;;;;;;4995451;28;20548;-63
2021/09/29 18:00:07;;;;;;;3.37;1.20;;;;;;;;;;4995518;28;20447;-63
2021/09/29 18:07:56;;;;;;;2.73;1.00;;;;;;;;;;4996372;28;20440;-65
2021/09/29 18:10:22;;;;;;;2.77;1.10;;;;;;;;;;4995061;28;20475;-65
2021/09/29 18:12:49;;;;;;;1.57;0.77;;;;;;;;;;4995965;28;20523;-65
2021/09/29 18:15:15;;;;;;;2.53;0.70;;;;;;;;;;4996789;28;20779;-64
2021/09/29 18:17:41;;;;;;;1.80;0.97;;;;;;;;;;4995882;28;20871;-64
2021/09/29 18:20:08;;;;;;;1.70;0.80;;;;;;;;;;4996926;28;20425;-64
2021/09/29 18:22:34;;;;;;;4.50;0.80;;;;;;;;;;4995847;28;20487;-64
2021/09/29 18:25:00;;;;;;;2.77;1.00;;;;;;;;;;4996491;28;20460;-64
2021/09/29 18:27:26;;;;;;;1.80;0.93;;;;;;;;;;4995532;28;20531;-64
2021/09/29 18:29:54;;;;;;;1.67;0.90;;;;;;;;;;4987275;28;20429;-65
2021/09/29 18:32:21;;;;;;;1.50;0.90;;;;;;;;;;4987058;28;20440;-64
2021/09/29 18:34:47;;;;;;;1.87;0.80;;;;;;;;;;4996368;28;20407;-63
2021/09/29 18:37:13;;;;;;;2.73;1.00;;;;;;;;;;4995376;28;20468;-64
2021/09/29 18:39:41;;;;;;;2.00;0.90;;;;;;;;;;4996265;28;20405;-65
2021/09/29 18:42:09;;;;;;;1.50;0.80;;;;;;;;;;4995474;28;20468;-65
2021/09/29 18:44:39;;;;;;;3.23;1.00;;;;;;;;;;4982065;28;20441;-64
2021/09/29 18:47:09;;;;;;;2.03;1.07;;;;;;;;;;4984693;28;20444;-64
2021/09/29 18:49:35;;;;;;;2.33;0.80;;;;;;;;;;4996513;28;20795;-65
2021/09/29 18:52:02;;;;;;;1.60;0.90;;;;;;;;;;4994464;28;20436;-65